KOMN

Ormond Beach Municipal Airport

Ormond Beach, Florida, USA
METAR KOMN 141648Z 16008G18KT 5SM BR SCT040 OVC070 23/20 A3004
Observed Flight Rules
Dec-14 @ 16:48 UTC (17 minutes ago) Marginal Visual Flight Rules
Wind Visibility Clouds Conditions
160° at 8 knots
 Gusting to 18 knots
5 miles
  • Scattered at 4,000' AGL
  • Overcast at 7,000' AGL
  • Mist
Temperatures Readings
Current 23°C / 73°F
Dewpoint 20°C / 68°F
Humidity 83%
Altimeter 30.04" Hg
Pressure 1017 hPa
Elevation 9
METAR KOMN 141648Z 16008G18KT 5SM BR SCT040 OVC070 23/20 A3004
Observed Flight Rules
Dec-14 @ 16:48 UTC
(17 minutes ago)
MVFR
Wind Visibility
160° at 8 knots
 Gusting to 18 knots
5 miles
Clouds
  • Scattered at 4,000' AGL
  • Overcast at 7,000' AGL
Conditions
  • Mist
Temperature Dewpoint
23°C / 73°F 20°C / 68°F
Humidity Altimeter Pressure
83% 30.04" Hg 1017 hPa